sensor_id;sensor_type;location;lat;lon;timestamp;P1;durP1;ratioP1;P2;durP2;ratioP2
40707;SDS011;26392;42.696;23.350;2022-08-19T00:01:47;17.48;;;7.90;;
40707;SDS011;26392;42.696;23.350;2022-08-19T00:04:15;13.55;;;8.13;;
40707;SDS011;26392;42.696;23.350;2022-08-19T00:06:43;12.77;;;7.78;;
40707;SDS011;26392;42.696;23.350;2022-08-19T00:09:11;20.33;;;9.98;;
40707;SDS011;26392;42.696;23.350;2022-08-19T00:11:39;17.10;;;9.80;;
40707;SDS011;26392;42.696;23.350;2022-08-19T00:14:06;17.08;;;10.25;;
40707;SDS011;26392;42.696;23.350;2022-08-19T00:16:34;18.35;;;10.48;;
40707;SDS011;26392;42.696;23.350;2022-08-19T00:19:01;21.67;;;11.00;;
40707;SDS011;26392;42.696;23.350;2022-08-19T00:21:27;20.60;;;10.05;;
40707;SDS011;26392;42.696;23.350;2022-08-19T00:23:53;17.27;;;10.35;;
40707;SDS011;26392;42.696;23.350;2022-08-19T00:26:20;16.83;;;10.00;;
40707;SDS011;26392;42.696;23.350;2022-08-19T00:28:46;19.42;;;9.45;;
40707;SDS011;26392;42.696;23.350;2022-08-19T00:31:12;12.25;;;8.75;;
40707;SDS011;26392;42.696;23.350;2022-08-19T00:33:38;14.45;;;8.32;;
40707;SDS011;26392;42.696;23.350;2022-08-19T00:36:04;9.02;;;6.63;;
40707;SDS011;26392;42.696;23.350;2022-08-19T00:38:34;15.20;;;7.18;;
40707;SDS011;26392;42.696;23.350;2022-08-19T00:41:01;10.18;;;6.80;;
40707;SDS011;26392;42.696;23.350;2022-08-19T00:43:27;15.63;;;7.68;;
40707;SDS011;26392;42.696;23.350;2022-08-19T00:45:53;11.75;;;6.95;;
40707;SDS011;26392;42.696;23.350;2022-08-19T00:48:19;6.05;;;4.78;;
40707;SDS011;26392;42.696;23.350;2022-08-19T00:50:45;12.93;;;6.03;;
40707;SDS011;26392;42.696;23.350;2022-08-19T00:53:14;10.93;;;5.65;;
40707;SDS011;26392;42.696;23.350;2022-08-19T00:55:44;8.95;;;5.30;;
40707;SDS011;26392;42.696;23.350;2022-08-19T00:58:12;7.65;;;5.53;;
40707;SDS011;26392;42.696;23.350;2022-08-19T01:00:40;8.82;;;5.32;;
40707;SDS011;26392;42.696;23.350;2022-08-19T01:03:08;8.57;;;5.45;;
40707;SDS011;26392;42.696;23.350;2022-08-19T01:05:36;8.48;;;5.03;;
40707;SDS011;26392;42.696;23.350;2022-08-19T01:08:05;8.13;;;5.32;;
40707;SDS011;26392;42.696;23.350;2022-08-19T01:10:33;8.27;;;5.20;;
40707;SDS011;26392;42.696;23.350;2022-08-19T01:13:02;9.82;;;6.22;;
40707;SDS011;26392;42.696;23.350;2022-08-19T01:15:32;9.30;;;5.53;;
40707;SDS011;26392;42.696;23.350;2022-08-19T01:18:04;11.85;;;6.47;;
40707;SDS011;26392;42.696;23.350;2022-08-19T01:20:32;11.00;;;6.32;;
40707;SDS011;26392;42.696;23.350;2022-08-19T01:22:59;12.65;;;6.63;;
40707;SDS011;26392;42.696;23.350;2022-08-19T01:25:47;13.68;;;7.30;;
40707;SDS011;26392;42.696;23.350;2022-08-19T01:28:22;10.45;;;5.82;;
40707;SDS011;26392;42.696;23.350;2022-08-19T01:30:51;10.38;;;6.47;;
40707;SDS011;26392;42.696;23.350;2022-08-19T01:33:18;13.57;;;6.75;;
40707;SDS011;26392;42.696;23.350;2022-08-19T01:35:44;8.23;;;6.43;;
40707;SDS011;26392;42.696;23.350;2022-08-19T01:38:19;10.48;;;6.50;;
40707;SDS011;26392;42.696;23.350;2022-08-19T01:40:47;11.90;;;6.57;;
40707;SDS011;26392;42.696;23.350;2022-08-19T01:43:12;13.48;;;6.68;;
40707;SDS011;26392;42.696;23.350;2022-08-19T01:45:38;12.45;;;6.57;;
40707;SDS011;26392;42.696;23.350;2022-08-19T01:48:05;14.65;;;6.63;;
40707;SDS011;26392;42.696;23.350;2022-08-19T01:50:32;8.40;;;6.28;;
40707;SDS011;26392;42.696;23.350;2022-08-19T01:52:59;9.60;;;6.38;;
40707;SDS011;26392;42.696;23.350;2022-08-19T01:55:26;13.45;;;6.25;;
40707;SDS011;26392;42.696;23.350;2022-08-19T01:57:58;11.77;;;5.95;;
40707;SDS011;26392;42.696;23.350;2022-08-19T02:00:27;9.90;;;6.30;;
40707;SDS011;26392;42.696;23.350;2022-08-19T02:02:55;11.93;;;5.97;;
40707;SDS011;26392;42.696;23.350;2022-08-19T02:05:21;7.72;;;6.00;;
40707;SDS011;26392;42.696;23.350;2022-08-19T02:07:48;11.77;;;6.57;;
40707;SDS011;26392;42.696;23.350;2022-08-19T02:10:16;11.02;;;6.18;;
40707;SDS011;26392;42.696;23.350;2022-08-19T02:12:44;9.85;;;6.95;;
40707;SDS011;26392;42.696;23.350;2022-08-19T02:15:10;12.15;;;6.43;;
40707;SDS011;26392;42.696;23.350;2022-08-19T02:17:35;8.95;;;5.82;;
40707;SDS011;26392;42.696;23.350;2022-08-19T02:20:01;12.93;;;6.05;;
40707;SDS011;26392;42.696;23.350;2022-08-19T02:22:28;17.55;;;7.10;;
40707;SDS011;26392;42.696;23.350;2022-08-19T02:24:53;172.07;;;23.98;;
40707;SDS011;26392;42.696;23.350;2022-08-19T02:27:20;15.02;;;7.18;;
40707;SDS011;26392;42.696;23.350;2022-08-19T02:29:47;15.32;;;6.60;;
40707;SDS011;26392;42.696;23.350;2022-08-19T02:32:15;9.05;;;6.45;;
40707;SDS011;26392;42.696;23.350;2022-08-19T02:34:41;13.55;;;6.90;;
40707;SDS011;26392;42.696;23.350;2022-08-19T02:37:07;12.68;;;5.93;;
40707;SDS011;26392;42.696;23.350;2022-08-19T02:39:52;9.40;;;6.50;;
40707;SDS011;26392;42.696;23.350;2022-08-19T02:42:18;10.18;;;6.30;;
40707;SDS011;26392;42.696;23.350;2022-08-19T02:44:43;10.20;;;6.82;;
40707;SDS011;26392;42.696;23.350;2022-08-19T02:47:09;11.15;;;7.13;;
40707;SDS011;26392;42.696;23.350;2022-08-19T02:49:35;11.45;;;7.22;;
40707;SDS011;26392;42.696;23.350;2022-08-19T02:52:01;10.75;;;7.07;;
40707;SDS011;26392;42.696;23.350;2022-08-19T02:54:28;20.40;;;7.55;;
40707;SDS011;26392;42.696;23.350;2022-08-19T02:56:53;11.40;;;7.13;;
40707;SDS011;26392;42.696;23.350;2022-08-19T02:59:19;13.88;;;7.72;;
40707;SDS011;26392;42.696;23.350;2022-08-19T03:01:45;13.13;;;6.82;;
40707;SDS011;26392;42.696;23.350;2022-08-19T03:04:11;13.52;;;8.25;;
40707;SDS011;26392;42.696;23.350;2022-08-19T03:06:40;10.63;;;7.47;;
40707;SDS011;26392;42.696;23.350;2022-08-19T03:09:08;11.82;;;7.63;;
40707;SDS011;26392;42.696;23.350;2022-08-19T03:11:34;12.10;;;7.15;;
40707;SDS011;26392;42.696;23.350;2022-08-19T03:13:59;13.23;;;8.18;;
40707;SDS011;26392;42.696;23.350;2022-08-19T03:16:26;15.30;;;7.22;;
40707;SDS011;26392;42.696;23.350;2022-08-19T03:18:55;10.25;;;7.70;;
40707;SDS011;26392;42.696;23.350;2022-08-19T03:21:23;11.80;;;7.68;;
40707;SDS011;26392;42.696;23.350;2022-08-19T03:23:53;12.85;;;7.72;;
40707;SDS011;26392;42.696;23.350;2022-08-19T03:26:19;14.02;;;7.90;;
40707;SDS011;26392;42.696;23.350;2022-08-19T03:28:45;13.23;;;8.07;;
40707;SDS011;26392;42.696;23.350;2022-08-19T03:31:15;14.52;;;7.93;;
40707;SDS011;26392;42.696;23.350;2022-08-19T03:33:46;14.23;;;8.48;;
40707;SDS011;26392;42.696;23.350;2022-08-19T03:36:13;16.30;;;8.05;;
40707;SDS011;26392;42.696;23.350;2022-08-19T03:38:45;11.20;;;7.70;;
40707;SDS011;26392;42.696;23.350;2022-08-19T03:41:14;11.50;;;7.60;;
40707;SDS011;26392;42.696;23.350;2022-08-19T03:43:42;14.25;;;8.52;;
40707;SDS011;26392;42.696;23.350;2022-08-19T03:46:13;15.27;;;8.48;;
40707;SDS011;26392;42.696;23.350;2022-08-19T03:48:45;12.02;;;7.95;;
40707;SDS011;26392;42.696;23.350;2022-08-19T03:51:18;11.73;;;7.90;;
40707;SDS011;26392;42.696;23.350;2022-08-19T03:53:47;12.70;;;8.15;;
40707;SDS011;26392;42.696;23.350;2022-08-19T03:56:13;13.82;;;8.27;;
40707;SDS011;26392;42.696;23.350;2022-08-19T03:58:39;13.57;;;8.18;;
40707;SDS011;26392;42.696;23.350;2022-08-19T04:01:09;11.95;;;8.20;;
40707;SDS011;26392;42.696;23.350;2022-08-19T04:03:37;11.88;;;8.30;;
40707;SDS011;26392;42.696;23.350;2022-08-19T04:06:14;22.05;;;8.50;;
40707;SDS011;26392;42.696;23.350;2022-08-19T04:08:40;15.98;;;8.93;;
40707;SDS011;26392;42.696;23.350;2022-08-19T04:11:12;12.93;;;8.43;;
40707;SDS011;26392;42.696;23.350;2022-08-19T04:13:39;13.75;;;8.85;;
40707;SDS011;26392;42.696;23.350;2022-08-19T04:16:05;16.15;;;8.88;;
40707;SDS011;26392;42.696;23.350;2022-08-19T04:18:34;17.50;;;9.00;;
40707;SDS011;26392;42.696;23.350;2022-08-19T04:21:00;13.32;;;8.88;;
40707;SDS011;26392;42.696;23.350;2022-08-19T04:23:26;17.10;;;8.70;;
40707;SDS011;26392;42.696;23.350;2022-08-19T04:25:53;18.30;;;9.65;;
40707;SDS011;26392;42.696;23.350;2022-08-19T04:28:19;18.05;;;8.73;;
40707;SDS011;26392;42.696;23.350;2022-08-19T04:30:47;18.75;;;9.10;;
40707;SDS011;26392;42.696;23.350;2022-08-19T04:33:15;13.32;;;8.50;;
40707;SDS011;26392;42.696;23.350;2022-08-19T04:35:45;17.50;;;8.57;;
40707;SDS011;26392;42.696;23.350;2022-08-19T04:38:12;20.70;;;8.20;;
40707;SDS011;26392;42.696;23.350;2022-08-19T04:40:42;14.55;;;8.13;;
40707;SDS011;26392;42.696;23.350;2022-08-19T04:43:28;12.82;;;7.97;;
40707;SDS011;26392;42.696;23.350;2022-08-19T04:45:54;15.57;;;8.00;;
40707;SDS011;26392;42.696;23.350;2022-08-19T04:48:19;13.88;;;8.25;;
40707;SDS011;26392;42.696;23.350;2022-08-19T04:50:50;14.90;;;8.57;;
40707;SDS011;26392;42.696;23.350;2022-08-19T04:53:25;12.63;;;7.15;;
40707;SDS011;26392;42.696;23.350;2022-08-19T04:55:56;10.98;;;8.27;;
40707;SDS011;26392;42.696;23.350;2022-08-19T04:58:24;15.77;;;8.27;;
40707;SDS011;26392;42.696;23.350;2022-08-19T05:00:50;11.60;;;7.40;;
40707;SDS011;26392;42.696;23.350;2022-08-19T05:03:16;23.27;;;8.20;;
40707;SDS011;26392;42.696;23.350;2022-08-19T05:05:43;12.95;;;8.75;;
40707;SDS011;26392;42.696;23.350;2022-08-19T05:08:09;10.52;;;7.53;;
40707;SDS011;26392;42.696;23.350;2022-08-19T05:10:36;10.68;;;8.18;;
40707;SDS011;26392;42.696;23.350;2022-08-19T05:13:03;14.02;;;8.95;;
40707;SDS011;26392;42.696;23.350;2022-08-19T05:15:29;13.13;;;8.55;;
40707;SDS011;26392;42.696;23.350;2022-08-19T05:17:55;12.15;;;8.80;;
40707;SDS011;26392;42.696;23.350;2022-08-19T05:20:38;15.07;;;8.75;;
40707;SDS011;26392;42.696;23.350;2022-08-19T05:23:22;15.43;;;8.68;;
40707;SDS011;26392;42.696;23.350;2022-08-19T05:25:48;13.55;;;8.52;;
40707;SDS011;26392;42.696;23.350;2022-08-19T05:28:15;16.23;;;10.23;;
40707;SDS011;26392;42.696;23.350;2022-08-19T05:30:41;11.98;;;7.60;;
40707;SDS011;26392;42.696;23.350;2022-08-19T05:33:08;15.90;;;8.68;;
40707;SDS011;26392;42.696;23.350;2022-08-19T05:35:35;13.02;;;8.82;;
40707;SDS011;26392;42.696;23.350;2022-08-19T05:38:02;11.10;;;8.63;;
40707;SDS011;26392;42.696;23.350;2022-08-19T05:40:28;12.65;;;8.90;;
40707;SDS011;26392;42.696;23.350;2022-08-19T05:42:53;19.00;;;9.63;;
40707;SDS011;26392;42.696;23.350;2022-08-19T05:45:19;16.98;;;9.63;;
40707;SDS011;26392;42.696;23.350;2022-08-19T05:47:46;15.70;;;9.27;;
40707;SDS011;26392;42.696;23.350;2022-08-19T05:50:12;17.52;;;8.73;;
40707;SDS011;26392;42.696;23.350;2022-08-19T05:52:38;16.77;;;9.02;;
40707;SDS011;26392;42.696;23.350;2022-08-19T05:55:03;19.77;;;9.82;;
40707;SDS011;26392;42.696;23.350;2022-08-19T05:57:30;24.10;;;9.05;;
40707;SDS011;26392;42.696;23.350;2022-08-19T05:59:56;21.65;;;9.75;;
40707;SDS011;26392;42.696;23.350;2022-08-19T06:02:22;19.20;;;10.10;;
40707;SDS011;26392;42.696;23.350;2022-08-19T06:04:48;15.13;;;8.68;;
40707;SDS011;26392;42.696;23.350;2022-08-19T06:07:14;16.10;;;9.10;;
40707;SDS011;26392;42.696;23.350;2022-08-19T06:09:40;19.23;;;10.02;;
40707;SDS011;26392;42.696;23.350;2022-08-19T06:12:06;23.77;;;10.38;;
40707;SDS011;26392;42.696;23.350;2022-08-19T06:14:33;18.70;;;9.35;;
40707;SDS011;26392;42.696;23.350;2022-08-19T06:16:59;20.00;;;9.55;;
40707;SDS011;26392;42.696;23.350;2022-08-19T06:19:27;16.80;;;9.27;;
40707;SDS011;26392;42.696;23.350;2022-08-19T06:21:54;20.75;;;8.95;;
40707;SDS011;26392;42.696;23.350;2022-08-19T06:24:23;16.58;;;8.80;;
40707;SDS011;26392;42.696;23.350;2022-08-19T06:26:51;14.80;;;9.30;;
40707;SDS011;26392;42.696;23.350;2022-08-19T06:29:19;15.48;;;8.52;;
40707;SDS011;26392;42.696;23.350;2022-08-19T06:31:47;17.55;;;8.77;;
40707;SDS011;26392;42.696;23.350;2022-08-19T06:34:15;14.77;;;8.25;;
40707;SDS011;26392;42.696;23.350;2022-08-19T06:36:42;16.38;;;8.43;;
40707;SDS011;26392;42.696;23.350;2022-08-19T06:39:12;18.60;;;9.52;;
40707;SDS011;26392;42.696;23.350;2022-08-19T06:41:41;17.42;;;7.80;;
40707;SDS011;26392;42.696;23.350;2022-08-19T06:44:08;13.80;;;7.63;;
40707;SDS011;26392;42.696;23.350;2022-08-19T06:46:35;14.70;;;8.80;;
40707;SDS011;26392;42.696;23.350;2022-08-19T06:49:01;17.05;;;7.72;;
40707;SDS011;26392;42.696;23.350;2022-08-19T06:51:27;12.35;;;7.47;;
40707;SDS011;26392;42.696;23.350;2022-08-19T06:53:54;14.85;;;7.97;;
40707;SDS011;26392;42.696;23.350;2022-08-19T06:56:22;12.88;;;7.40;;
40707;SDS011;26392;42.696;23.350;2022-08-19T06:59:04;15.52;;;7.85;;
40707;SDS011;26392;42.696;23.350;2022-08-19T07:01:35;11.15;;;7.38;;
40707;SDS011;26392;42.696;23.350;2022-08-19T07:04:03;13.88;;;7.45;;
40707;SDS011;26392;42.696;23.350;2022-08-19T07:06:33;12.80;;;7.20;;
40707;SDS011;26392;42.696;23.350;2022-08-19T07:08:59;13.00;;;6.90;;
40707;SDS011;26392;42.696;23.350;2022-08-19T07:11:25;9.52;;;6.78;;
40707;SDS011;26392;42.696;23.350;2022-08-19T07:13:51;9.40;;;6.78;;
40707;SDS011;26392;42.696;23.350;2022-08-19T07:16:17;8.18;;;6.28;;
40707;SDS011;26392;42.696;23.350;2022-08-19T07:18:44;13.40;;;6.93;;
40707;SDS011;26392;42.696;23.350;2022-08-19T07:21:16;13.07;;;6.97;;
40707;SDS011;26392;42.696;23.350;2022-08-19T07:23:44;11.98;;;6.45;;
40707;SDS011;26392;42.696;23.350;2022-08-19T07:26:18;12.88;;;6.38;;
40707;SDS011;26392;42.696;23.350;2022-08-19T07:28:49;11.18;;;6.15;;
40707;SDS011;26392;42.696;23.350;2022-08-19T07:31:19;10.45;;;6.93;;
40707;SDS011;26392;42.696;23.350;2022-08-19T07:33:48;10.82;;;6.05;;
40707;SDS011;26392;42.696;23.350;2022-08-19T07:36:18;9.25;;;6.50;;
40707;SDS011;26392;42.696;23.350;2022-08-19T07:38:47;13.05;;;6.00;;
40707;SDS011;26392;42.696;23.350;2022-08-19T07:41:15;11.98;;;6.65;;
40707;SDS011;26392;42.696;23.350;2022-08-19T07:43:48;7.90;;;5.65;;
40707;SDS011;26392;42.696;23.350;2022-08-19T07:46:14;8.63;;;5.97;;
40707;SDS011;26392;42.696;23.350;2022-08-19T07:48:43;7.78;;;5.63;;
40707;SDS011;26392;42.696;23.350;2022-08-19T07:51:13;12.27;;;6.07;;
40707;SDS011;26392;42.696;23.350;2022-08-19T07:53:41;9.00;;;6.90;;
40707;SDS011;26392;42.696;23.350;2022-08-19T07:56:08;12.32;;;6.38;;
40707;SDS011;26392;42.696;23.350;2022-08-19T07:58:35;9.75;;;6.32;;
40707;SDS011;26392;42.696;23.350;2022-08-19T08:01:03;7.15;;;5.32;;
40707;SDS011;26392;42.696;23.350;2022-08-19T08:03:29;9.30;;;5.82;;
40707;SDS011;26392;42.696;23.350;2022-08-19T08:06:14;10.02;;;5.70;;
40707;SDS011;26392;42.696;23.350;2022-08-19T08:08:58;10.05;;;6.00;;
40707;SDS011;26392;42.696;23.350;2022-08-19T08:11:37;9.55;;;5.78;;
40707;SDS011;26392;42.696;23.350;2022-08-19T08:14:03;10.20;;;5.35;;
40707;SDS011;26392;42.696;23.350;2022-08-19T08:16:30;14.07;;;6.25;;
40707;SDS011;26392;42.696;23.350;2022-08-19T08:19:04;10.25;;;5.72;;
40707;SDS011;26392;42.696;23.350;2022-08-19T08:21:31;8.60;;;5.85;;
40707;SDS011;26392;42.696;23.350;2022-08-19T08:23:57;7.57;;;5.65;;
40707;SDS011;26392;42.696;23.350;2022-08-19T08:26:23;9.93;;;5.50;;
40707;SDS011;26392;42.696;23.350;2022-08-19T08:28:50;8.68;;;5.35;;
40707;SDS011;26392;42.696;23.350;2022-08-19T08:31:16;9.85;;;6.50;;
40707;SDS011;26392;42.696;23.350;2022-08-19T08:33:43;8.77;;;5.57;;
40707;SDS011;26392;42.696;23.350;2022-08-19T08:36:09;10.30;;;5.43;;
40707;SDS011;26392;42.696;23.350;2022-08-19T08:38:34;9.60;;;5.70;;
40707;SDS011;26392;42.696;23.350;2022-08-19T08:41:03;17.50;;;6.50;;
40707;SDS011;26392;42.696;23.350;2022-08-19T08:43:52;7.93;;;5.85;;
40707;SDS011;26392;42.696;23.350;2022-08-19T08:46:24;8.98;;;5.20;;
40707;SDS011;26392;42.696;23.350;2022-08-19T08:52:08;16.65;;;5.72;;
40707;SDS011;26392;42.696;23.350;2022-08-19T08:54:41;11.82;;;5.85;;
40707;SDS011;26392;42.696;23.350;2022-08-19T08:57:17;7.30;;;5.07;;
40707;SDS011;26392;42.696;23.350;2022-08-19T08:59:48;10.73;;;4.70;;
40707;SDS011;26392;42.696;23.350;2022-08-19T09:02:18;8.15;;;4.63;;
40707;SDS011;26392;42.696;23.350;2022-08-19T09:04:44;9.73;;;4.95;;
40707;SDS011;26392;42.696;23.350;2022-08-19T09:09:57;6.43;;;4.40;;
40707;SDS011;26392;42.696;23.350;2022-08-19T09:15:52;7.15;;;4.65;;
40707;SDS011;26392;42.696;23.350;2022-08-19T09:18:22;9.13;;;4.53;;
40707;SDS011;26392;42.696;23.350;2022-08-19T09:20:48;5.57;;;3.90;;
40707;SDS011;26392;42.696;23.350;2022-08-19T09:23:13;8.45;;;4.57;;
40707;SDS011;26392;42.696;23.350;2022-08-19T09:25:39;5.38;;;4.57;;
40707;SDS011;26392;42.696;23.350;2022-08-19T09:28:05;6.78;;;4.93;;
40707;SDS011;26392;42.696;23.350;2022-08-19T09:30:32;10.07;;;4.75;;
40707;SDS011;26392;42.696;23.350;2022-08-19T09:33:00;4.28;;;3.70;;
40707;SDS011;26392;42.696;23.350;2022-08-19T09:35:26;6.35;;;4.05;;
40707;SDS011;26392;42.696;23.350;2022-08-19T09:37:54;7.28;;;3.97;;
40707;SDS011;26392;42.696;23.350;2022-08-19T09:40:22;4.40;;;3.97;;
40707;SDS011;26392;42.696;23.350;2022-08-19T09:42:47;6.88;;;3.90;;
40707;SDS011;26392;42.696;23.350;2022-08-19T09:45:17;4.18;;;3.72;;
40707;SDS011;26392;42.696;23.350;2022-08-19T09:47:49;7.72;;;3.90;;
40707;SDS011;26392;42.696;23.350;2022-08-19T09:50:16;5.50;;;3.75;;
40707;SDS011;26392;42.696;23.350;2022-08-19T09:52:41;5.63;;;4.30;;
40707;SDS011;26392;42.696;23.350;2022-08-19T09:55:08;4.35;;;3.30;;
40707;SDS011;26392;42.696;23.350;2022-08-19T09:57:35;4.03;;;3.30;;
40707;SDS011;26392;42.696;23.350;2022-08-19T10:00:01;4.32;;;3.50;;
40707;SDS011;26392;42.696;23.350;2022-08-19T10:02:28;4.68;;;3.67;;
40707;SDS011;26392;42.696;23.350;2022-08-19T10:04:54;4.53;;;3.70;;
40707;SDS011;26392;42.696;23.350;2022-08-19T10:07:38;6.20;;;3.55;;
40707;SDS011;26392;42.696;23.350;2022-08-19T10:10:04;5.10;;;3.92;;
40707;SDS011;26392;42.696;23.350;2022-08-19T10:12:31;10.82;;;4.03;;
40707;SDS011;26392;42.696;23.350;2022-08-19T10:14:58;4.82;;;3.75;;
40707;SDS011;26392;42.696;23.350;2022-08-19T10:17:24;4.60;;;3.53;;
40707;SDS011;26392;42.696;23.350;2022-08-19T10:19:50;5.55;;;3.75;;
40707;SDS011;26392;42.696;23.350;2022-08-19T10:22:17;6.95;;;4.45;;
40707;SDS011;26392;42.696;23.350;2022-08-19T10:24:45;5.63;;;3.50;;
40707;SDS011;26392;42.696;23.350;2022-08-19T10:27:11;9.77;;;4.07;;
40707;SDS011;26392;42.696;23.350;2022-08-19T10:29:38;4.40;;;3.70;;
40707;SDS011;26392;42.696;23.350;2022-08-19T10:32:05;8.00;;;4.10;;
40707;SDS011;26392;42.696;23.350;2022-08-19T10:34:33;7.20;;;3.92;;
40707;SDS011;26392;42.696;23.350;2022-08-19T10:37:01;6.88;;;4.07;;
40707;SDS011;26392;42.696;23.350;2022-08-19T10:39:28;7.25;;;4.15;;
40707;SDS011;26392;42.696;23.350;2022-08-19T10:41:55;6.18;;;3.70;;
40707;SDS011;26392;42.696;23.350;2022-08-19T10:44:41;6.45;;;4.55;;
40707;SDS011;26392;42.696;23.350;2022-08-19T10:47:06;5.35;;;4.32;;
40707;SDS011;26392;42.696;23.350;2022-08-19T10:49:32;7.53;;;4.70;;
40707;SDS011;26392;42.696;23.350;2022-08-19T10:55:05;6.63;;;4.10;;
40707;SDS011;26392;42.696;23.350;2022-08-19T10:57:50;5.05;;;3.97;;
40707;SDS011;26392;42.696;23.350;2022-08-19T11:00:17;5.53;;;4.03;;
40707;SDS011;26392;42.696;23.350;2022-08-19T11:02:44;6.00;;;4.28;;
40707;SDS011;26392;42.696;23.350;2022-08-19T11:05:10;7.47;;;4.95;;
40707;SDS011;26392;42.696;23.350;2022-08-19T11:07:37;4.80;;;4.30;;
40707;SDS011;26392;42.696;23.350;2022-08-19T11:10:04;7.70;;;4.10;;
40707;SDS011;26392;42.696;23.350;2022-08-19T11:12:31;6.35;;;3.92;;
40707;SDS011;26392;42.696;23.350;2022-08-19T11:14:57;6.20;;;3.75;;
40707;SDS011;26392;42.696;23.350;2022-08-19T11:17:23;7.22;;;4.03;;
40707;SDS011;26392;42.696;23.350;2022-08-19T11:19:49;7.50;;;4.03;;
40707;SDS011;26392;42.696;23.350;2022-08-19T11:22:15;6.35;;;4.20;;
40707;SDS011;26392;42.696;23.350;2022-08-19T11:24:42;5.05;;;4.05;;
40707;SDS011;26392;42.696;23.350;2022-08-19T11:27:08;4.60;;;4.20;;
40707;SDS011;26392;42.696;23.350;2022-08-19T11:29:35;3.95;;;3.55;;
40707;SDS011;26392;42.696;23.350;2022-08-19T11:32:04;5.50;;;4.10;;
40707;SDS011;26392;42.696;23.350;2022-08-19T11:34:32;6.05;;;4.20;;
40707;SDS011;26392;42.696;23.350;2022-08-19T11:36:58;7.20;;;4.15;;
40707;SDS011;26392;42.696;23.350;2022-08-19T11:39:24;5.18;;;4.00;;
40707;SDS011;26392;42.696;23.350;2022-08-19T11:41:51;6.30;;;4.25;;
40707;SDS011;26392;42.696;23.350;2022-08-19T11:44:17;6.63;;;4.35;;
40707;SDS011;26392;42.696;23.350;2022-08-19T11:46:43;7.35;;;4.70;;
40707;SDS011;26392;42.696;23.350;2022-08-19T11:49:12;6.53;;;4.78;;
40707;SDS011;26392;42.696;23.350;2022-08-19T11:51:43;5.82;;;4.15;;
40707;SDS011;26392;42.696;23.350;2022-08-19T11:54:09;8.27;;;4.57;;
40707;SDS011;26392;42.696;23.350;2022-08-19T11:56:36;8.55;;;5.70;;
40707;SDS011;26392;42.696;23.350;2022-08-19T11:59:02;5.13;;;4.43;;
40707;SDS011;26392;42.696;23.350;2022-08-19T12:01:28;14.48;;;4.97;;
40707;SDS011;26392;42.696;23.350;2022-08-19T12:03:54;5.85;;;4.72;;
40707;SDS011;26392;42.696;23.350;2022-08-19T12:06:25;7.43;;;4.03;;
40707;SDS011;26392;42.696;23.350;2022-08-19T12:08:53;7.55;;;4.70;;
40707;SDS011;26392;42.696;23.350;2022-08-19T12:11:20;7.20;;;4.80;;
40707;SDS011;26392;42.696;23.350;2022-08-19T12:13:46;15.98;;;3.95;;
40707;SDS011;26392;42.696;23.350;2022-08-19T12:16:17;5.60;;;4.45;;
40707;SDS011;26392;42.696;23.350;2022-08-19T12:18:46;5.10;;;4.40;;
40707;SDS011;26392;42.696;23.350;2022-08-19T12:21:13;4.80;;;4.30;;
40707;SDS011;26392;42.696;23.350;2022-08-19T12:23:40;7.22;;;4.88;;
40707;SDS011;26392;42.696;23.350;2022-08-19T12:26:08;6.30;;;4.82;;
40707;SDS011;26392;42.696;23.350;2022-08-19T12:28:34;6.45;;;4.65;;
40707;SDS011;26392;42.696;23.350;2022-08-19T12:31:00;11.20;;;4.95;;
40707;SDS011;26392;42.696;23.350;2022-08-19T12:33:25;5.90;;;4.28;;
40707;SDS011;26392;42.696;23.350;2022-08-19T12:35:53;7.68;;;4.80;;
40707;SDS011;26392;42.696;23.350;2022-08-19T12:38:19;9.32;;;4.95;;
40707;SDS011;26392;42.696;23.350;2022-08-19T12:40:45;6.97;;;4.20;;
40707;SDS011;26392;42.696;23.350;2022-08-19T12:43:11;5.75;;;4.53;;
40707;SDS011;26392;42.696;23.350;2022-08-19T12:45:39;5.18;;;4.57;;
40707;SDS011;26392;42.696;23.350;2022-08-19T12:48:04;7.00;;;4.65;;
40707;SDS011;26392;42.696;23.350;2022-08-19T12:50:30;5.95;;;4.18;;
40707;SDS011;26392;42.696;23.350;2022-08-19T12:52:56;7.63;;;4.63;;
40707;SDS011;26392;42.696;23.350;2022-08-19T12:55:23;9.57;;;5.22;;
40707;SDS011;26392;42.696;23.350;2022-08-19T12:57:49;6.07;;;4.45;;
40707;SDS011;26392;42.696;23.350;2022-08-19T13:00:16;7.90;;;4.97;;
40707;SDS011;26392;42.696;23.350;2022-08-19T13:02:46;9.73;;;4.90;;
40707;SDS011;26392;42.696;23.350;2022-08-19T13:05:15;11.05;;;5.03;;
40707;SDS011;26392;42.696;23.350;2022-08-19T13:07:44;7.07;;;4.28;;
40707;SDS011;26392;42.696;23.350;2022-08-19T13:10:11;5.70;;;4.10;;
40707;SDS011;26392;42.696;23.350;2022-08-19T13:12:40;4.97;;;4.47;;
40707;SDS011;26392;42.696;23.350;2022-08-19T13:15:07;5.38;;;4.20;;
40707;SDS011;26392;42.696;23.350;2022-08-19T13:17:34;7.20;;;4.40;;
40707;SDS011;26392;42.696;23.350;2022-08-19T13:20:00;6.03;;;3.90;;
40707;SDS011;26392;42.696;23.350;2022-08-19T13:22:25;7.80;;;4.28;;
40707;SDS011;26392;42.696;23.350;2022-08-19T13:24:51;9.35;;;4.63;;
40707;SDS011;26392;42.696;23.350;2022-08-19T13:27:17;9.98;;;4.72;;
40707;SDS011;26392;42.696;23.350;2022-08-19T13:29:42;9.48;;;4.60;;
40707;SDS011;26392;42.696;23.350;2022-08-19T13:32:26;5.65;;;4.47;;
40707;SDS011;26392;42.696;23.350;2022-08-19T13:35:10;5.85;;;4.65;;
40707;SDS011;26392;42.696;23.350;2022-08-19T13:37:35;10.50;;;4.40;;
40707;SDS011;26392;42.696;23.350;2022-08-19T13:40:08;6.47;;;4.40;;
40707;SDS011;26392;42.696;23.350;2022-08-19T13:42:38;7.78;;;4.53;;
40707;SDS011;26392;42.696;23.350;2022-08-19T13:45:05;10.48;;;4.28;;
40707;SDS011;26392;42.696;23.350;2022-08-19T13:47:31;7.50;;;4.57;;
40707;SDS011;26392;42.696;23.350;2022-08-19T13:49:59;5.03;;;4.03;;
40707;SDS011;26392;42.696;23.350;2022-08-19T13:52:25;6.80;;;4.47;;
40707;SDS011;26392;42.696;23.350;2022-08-19T13:54:50;5.95;;;4.45;;
40707;SDS011;26392;42.696;23.350;2022-08-19T13:57:16;7.43;;;4.43;;
40707;SDS011;26392;42.696;23.350;2022-08-19T13:59:41;8.82;;;4.80;;
40707;SDS011;26392;42.696;23.350;2022-08-19T14:02:07;6.95;;;4.25;;
40707;SDS011;26392;42.696;23.350;2022-08-19T14:04:32;5.30;;;4.53;;
40707;SDS011;26392;42.696;23.350;2022-08-19T14:06:57;6.32;;;4.78;;
40707;SDS011;26392;42.696;23.350;2022-08-19T14:09:23;10.90;;;5.07;;
40707;SDS011;26392;42.696;23.350;2022-08-19T14:11:48;6.68;;;4.47;;
40707;SDS011;26392;42.696;23.350;2022-08-19T14:14:15;10.65;;;4.63;;
40707;SDS011;26392;42.696;23.350;2022-08-19T14:16:41;6.32;;;4.72;;
40707;SDS011;26392;42.696;23.350;2022-08-19T14:19:07;7.57;;;4.57;;
40707;SDS011;26392;42.696;23.350;2022-08-19T14:21:33;6.40;;;4.32;;
40707;SDS011;26392;42.696;23.350;2022-08-19T14:23:59;6.93;;;4.30;;
40707;SDS011;26392;42.696;23.350;2022-08-19T14:26:24;9.63;;;4.80;;
40707;SDS011;26392;42.696;23.350;2022-08-19T14:28:50;12.05;;;5.15;;
40707;SDS011;26392;42.696;23.350;2022-08-19T14:31:17;6.22;;;4.85;;
40707;SDS011;26392;42.696;23.350;2022-08-19T14:33:45;6.60;;;5.18;;
40707;SDS011;26392;42.696;23.350;2022-08-19T14:36:11;7.13;;;4.43;;
40707;SDS011;26392;42.696;23.350;2022-08-19T14:38:37;8.10;;;4.55;;
40707;SDS011;26392;42.696;23.350;2022-08-19T14:43:36;6.35;;;4.22;;
40707;SDS011;26392;42.696;23.350;2022-08-19T14:46:03;5.28;;;4.78;;
40707;SDS011;26392;42.696;23.350;2022-08-19T14:48:29;8.02;;;5.32;;